Gjoa Haven Airport
CYHK : rendu visible

Aérodrome :











RETROUVEZ-NOUS SUR...

 
LOGIN :

S'inscrire | Disclaimer

   EN    FR    IT 

 









Légende :    VFR   VFR Marginal   IFR   IFR Intensif   IFR Très Intensif
Visi : 
Plafond : 
>= 8 km
>= 3000ft
5 à 8 km
1000 à 3000 ft
1500m à 5 km
500 à 1000 ft
800 à 1500m
200 à 500 ft
< 800m
< 200 ft
Symboles :   Orages  Brouillard  Fortes neiges  Fortes précipitations  Vent > 20 kt






- Altitude de l'aérodrome : 152 ft
- Code IATA : YHK


CYHK - Gjoa Haven

DERNIER METAR :
  • 171215Z AUTO 31014KT 6SM -SN OVC044 M18/M19 A2966 RMK SLP053

METARs EXPIRÉS :
  • 171200Z AUTO 29011KT 4SM -SN BKN041 OVC050 M18/M19 A2966 RMK SLP054
  • 171138Z AUTO 29009KT 6SM -SN OVC055 M18/M19 A2967 RMK SLP055
  • 171100Z AUTO 29010KT 4SM -SN FEW037 OVC055 M19/M20 A2967 RMK SLP057
  • 171005Z AUTO 28008KT 5SM -SN SCT030 OVC047 M21/M22 A2969 RMK SLP062
  • 170929Z AUTO 28006KT 6SM -SN BKN050 OVC070 M22/M23 A2969 RMK SLP064

TAF TAF CYHK
Valide du 17 à 12h jusqu'au 18 à 00h UTC


171138Z 1712/1724 29010KT P6SM SCT020 BKN050
TEMPO 1712/1724 4SM -SN BKN020 OVC050
BECMG 1712/1714 30015KT RMK FCST BASED ON AUTO OBS. NXT FCST BY 171800Z



MET'MAP, la Météo Aéronautique d'un coup d'oeil ! - Copyright ORBIFLY Décembre 2007 - Disclaimer

ORBIFLY MET'MAP TEAM :

Programmation & Développement : Alexandra Zaïnal
Conception & Développement : Baudouin d'Aumeries
Co-Programmation & Développement : Marc-Olivier Méhu
Soutien technique & logistique : Manuel Goepfert

Contact : metmap@orbifly.com




SOURCES & CREDITS :

   NOAA       Earth
Advisory